createdAt,value
2023-06-22T00:01:31.243Z,51.29
2023-06-22T00:04:01.830Z,51.19
2023-06-22T00:06:30.404Z,51.22
2023-06-22T00:08:58.720Z,51.25
2023-06-22T00:11:29.028Z,51.34
2023-06-22T00:13:57.375Z,51.49
2023-06-22T00:16:25.646Z,51.40
2023-06-22T00:18:54.014Z,51.37
2023-06-22T00:21:22.449Z,51.51
2023-06-22T00:23:50.778Z,51.45
2023-06-22T00:26:25.818Z,51.43
2023-06-22T00:28:55.514Z,51.60
2023-06-22T00:31:23.890Z,51.44
2023-06-22T00:33:52.606Z,51.26
2023-06-22T00:36:29.927Z,51.38
2023-06-22T00:38:58.741Z,51.44
2023-06-22T00:41:32.299Z,51.44
2023-06-22T00:44:01.936Z,51.61
2023-06-22T00:46:30.386Z,51.66
2023-06-22T00:48:59.050Z,51.73
2023-06-22T00:51:27.546Z,52.07
2023-06-22T00:53:56.508Z,52.05
2023-06-22T00:56:31.120Z,52.12
2023-06-22T00:59:04.618Z,52.23
2023-06-22T01:01:33.517Z,52.27
2023-06-22T01:04:07.694Z,52.10
2023-06-22T01:06:47.126Z,52.37
2023-06-22T01:09:22.498Z,52.30
2023-06-22T01:12:00.013Z,52.43
2023-06-22T01:14:39.361Z,52.55
2023-06-22T01:17:10.280Z,52.65
2023-06-22T01:19:48.001Z,52.56
2023-06-22T01:22:19.363Z,52.74
2023-06-22T01:24:59.776Z,52.63
2023-06-22T01:27:43.465Z,52.56
2023-06-22T01:30:14.122Z,52.62
2023-06-22T01:32:43.715Z,52.83
2023-06-22T01:35:19.556Z,52.89
2023-06-22T01:37:49.276Z,52.88
2023-06-22T01:40:18.252Z,53.09
2023-06-22T01:42:47.437Z,53.08
2023-06-22T01:45:18.349Z,53.31
2023-06-22T01:47:47.106Z,53.20
2023-06-22T01:50:15.633Z,53.53
2023-06-22T01:52:43.977Z,53.36
2023-06-22T01:55:12.295Z,53.25
2023-06-22T01:57:41.198Z,53.39
2023-06-22T02:00:16.859Z,53.46
2023-06-22T02:02:54.148Z,53.55
2023-06-22T02:05:23.551Z,53.61
2023-06-22T02:07:57.907Z,53.74
2023-06-22T02:10:33.599Z,53.84
2023-06-22T02:13:05.545Z,53.60
2023-06-22T02:15:35.823Z,53.93
2023-06-22T02:18:04.368Z,53.79
2023-06-22T02:20:32.982Z,54.06
2023-06-22T02:23:01.341Z,54.15
2023-06-22T02:25:29.718Z,54.23
2023-06-22T02:27:58.024Z,54.28
2023-06-22T02:30:26.563Z,54.34
2023-06-22T02:32:59.944Z,54.39
2023-06-22T02:35:32.830Z,54.33
2023-06-22T02:38:04.711Z,54.19
2023-06-22T02:40:35.862Z,54.24
2023-06-22T02:43:05.208Z,54.28
2023-06-22T02:45:33.577Z,54.65
2023-06-22T02:48:06.237Z,54.62
2023-06-22T02:50:34.659Z,54.54
2023-06-22T02:53:02.967Z,54.69
2023-06-22T02:55:32.062Z,54.77
2023-06-22T02:58:09.681Z,55.17
2023-06-22T03:00:38.053Z,54.99
2023-06-22T03:03:07.829Z,55.00
2023-06-22T03:05:38.801Z,55.13
2023-06-22T03:08:07.164Z,55.12
2023-06-22T03:10:35.462Z,55.06
2023-06-22T03:13:03.796Z,55.10
2023-06-22T03:15:32.575Z,55.19
2023-06-22T03:18:01.046Z,55.43
2023-06-22T03:20:34.481Z,55.22
2023-06-22T03:23:02.924Z,55.33
2023-06-22T03:25:31.280Z,55.29
2023-06-22T03:27:59.572Z,55.53
2023-06-22T03:30:28.237Z,55.65
2023-06-22T03:32:56.906Z,55.57
2023-06-22T03:35:25.345Z,55.60
2023-06-22T03:37:55.169Z,55.99
2023-06-22T03:40:26.607Z,55.93
2023-06-22T03:42:54.990Z,56.07
2023-06-22T03:45:23.313Z,55.78
2023-06-22T03:47:51.784Z,55.73
2023-06-22T03:50:24.343Z,55.71
2023-06-22T03:52:54.013Z,55.99
2023-06-22T03:55:25.457Z,55.98
2023-06-22T03:57:55.297Z,56.07
2023-06-22T04:00:23.565Z,55.93
2023-06-22T04:02:52.223Z,56.22
2023-06-22T04:05:20.615Z,56.36
2023-06-22T04:07:49.033Z,56.47
2023-06-22T04:10:24.453Z,56.36
2023-06-22T04:12:52.827Z,56.23
2023-06-22T04:15:21.096Z,56.61
2023-06-22T04:17:49.473Z,56.65
2023-06-22T04:20:17.812Z,56.53
2023-06-22T04:22:49.376Z,56.49
2023-06-22T04:25:17.821Z,56.59
2023-06-22T04:27:47.510Z,56.74
2023-06-22T04:30:17.409Z,56.65
2023-06-22T04:32:46.672Z,56.60
2023-06-22T04:35:17.009Z,56.53
2023-06-22T04:37:47.138Z,56.63
2023-06-22T04:40:15.615Z,56.69
2023-06-22T04:42:54.055Z,56.56
2023-06-22T04:45:24.014Z,56.64
2023-06-22T04:47:53.176Z,56.74
2023-06-22T04:50:22.873Z,56.74
2023-06-22T04:52:51.532Z,56.70
2023-06-22T04:55:20.911Z,56.37
2023-06-22T04:57:50.806Z,56.42
2023-06-22T05:00:24.237Z,56.41
2023-06-22T05:03:10.729Z,56.37
2023-06-22T05:05:46.876Z,56.56
2023-06-22T05:08:16.638Z,56.50
2023-06-22T05:10:59.125Z,56.57
2023-06-22T05:13:34.727Z,56.54
2023-06-22T05:16:04.126Z,56.40
2023-06-22T05:18:34.453Z,56.49
2023-06-22T05:21:03.111Z,56.19
2023-06-22T05:23:31.411Z,56.47
2023-06-22T05:26:02.356Z,56.36
2023-06-22T05:28:30.615Z,56.47
2023-06-22T05:30:59.097Z,56.34
2023-06-22T05:33:27.504Z,56.20
2023-06-22T05:35:57.225Z,56.23
2023-06-22T05:38:25.546Z,56.20
2023-06-22T05:40:53.847Z,56.23
2023-06-22T05:43:22.165Z,55.90
2023-06-22T05:45:50.561Z,56.03
2023-06-22T05:48:18.987Z,56.21
2023-06-22T05:50:47.499Z,56.04
2023-06-22T05:53:18.907Z,55.92
2023-06-22T05:55:49.664Z,55.76
2023-06-22T05:58:18.159Z,55.40
2023-06-22T06:00:47.492Z,55.70
2023-06-22T06:03:18.339Z,55.57
2023-06-22T06:05:49.442Z,55.48
2023-06-22T06:08:19.131Z,55.40
2023-06-22T06:10:49.673Z,55.27
2023-06-22T06:13:18.007Z,55.15
2023-06-22T06:15:46.438Z,54.89
2023-06-22T06:18:14.811Z,55.22
2023-06-22T06:20:43.144Z,55.14
2023-06-22T06:23:11.497Z,54.73
2023-06-22T06:25:41.197Z,54.60
2023-06-22T06:28:09.561Z,54.58
2023-06-22T06:30:38.861Z,54.23
2023-06-22T06:33:10.129Z,54.22
2023-06-22T06:35:38.830Z,53.65
2023-06-22T06:38:07.280Z,53.66
2023-06-22T06:40:35.840Z,53.52
2023-06-22T06:43:05.665Z,53.26
2023-06-22T06:45:35.826Z,53.11
2023-06-22T06:48:04.553Z,53.12
2023-06-22T06:50:33.331Z,52.63
2023-06-22T06:53:01.964Z,52.25
2023-06-22T06:55:33.988Z,51.70
2023-06-22T06:58:03.108Z,51.50
2023-06-22T07:00:33.258Z,51.54
2023-06-22T07:03:01.781Z,51.49
2023-06-22T07:05:30.259Z,51.40
2023-06-22T07:07:58.640Z,50.57
2023-06-22T07:10:27.309Z,50.75
2023-06-22T07:12:55.761Z,50.65
2023-06-22T07:15:24.356Z,49.93
2023-06-22T07:17:54.045Z,49.70
2023-06-22T07:20:22.387Z,50.35
2023-06-22T07:22:50.750Z,49.25
2023-06-22T07:25:19.245Z,49.26
2023-06-22T07:27:58.606Z,48.23
2023-06-22T07:30:28.192Z,48.03
2023-06-22T07:32:59.178Z,47.64
2023-06-22T07:35:27.921Z,47.11
2023-06-22T07:37:56.243Z,46.87
2023-06-22T07:40:24.821Z,45.72
2023-06-22T07:42:54.582Z,44.43
2023-06-22T07:45:22.936Z,43.90
2023-06-22T07:47:52.283Z,42.83
2023-06-22T07:50:22.084Z,42.87
2023-06-22T07:52:50.518Z,42.50
2023-06-22T07:55:18.970Z,42.37
2023-06-22T07:57:54.423Z,41.38
2023-06-22T08:00:23.321Z,41.14
2023-06-22T08:02:51.830Z,40.79
2023-06-22T08:05:22.921Z,40.44
2023-06-22T08:07:51.999Z,39.88
2023-06-22T08:10:21.311Z,40.82
2023-06-22T08:12:49.753Z,40.54
2023-06-22T08:15:18.240Z,40.15
2023-06-22T08:17:47.398Z,39.39
2023-06-22T08:20:16.084Z,38.58
2023-06-22T08:22:46.349Z,38.62
2023-06-22T08:25:15.627Z,39.65
2023-06-22T08:27:49.525Z,39.72
2023-06-22T08:30:21.023Z,38.50
2023-06-22T08:32:49.461Z,37.75
2023-06-22T08:35:17.896Z,37.79
2023-06-22T08:37:52.909Z,37.56
2023-06-22T08:40:22.550Z,37.19
2023-06-22T08:42:51.317Z,36.45
2023-06-22T08:45:19.901Z,36.38
2023-06-22T08:47:48.231Z,35.49
2023-06-22T08:50:16.713Z,35.95
2023-06-22T08:52:47.104Z,35.85
2023-06-22T08:55:15.741Z,35.79
2023-06-22T08:57:45.034Z,35.21
2023-06-22T09:00:21.339Z,35.18
2023-06-22T09:02:50.505Z,34.41
2023-06-22T09:05:19.350Z,33.75
2023-06-22T09:07:49.106Z,33.86
2023-06-22T09:10:17.879Z,33.08
2023-06-22T09:12:46.360Z,33.62
2023-06-22T09:15:17.494Z,32.63
2023-06-22T09:17:48.444Z,32.79
2023-06-22T09:20:17.212Z,32.77
2023-06-22T09:22:45.702Z,32.53
2023-06-22T09:25:15.734Z,33.46
2023-06-22T09:27:44.131Z,32.08
2023-06-22T09:30:15.732Z,32.02
2023-06-22T09:32:45.056Z,32.19
2023-06-22T09:35:14.662Z,32.68
2023-06-22T09:37:43.445Z,31.59
2023-06-22T09:40:16.881Z,31.67
2023-06-22T09:42:45.324Z,30.84
2023-06-22T09:45:13.711Z,30.57
2023-06-22T09:47:42.589Z,30.37
2023-06-22T09:50:11.794Z,30.93
2023-06-22T09:55:16.684Z,30.33
2023-06-22T09:57:46.503Z,29.67
2023-06-22T10:00:16.701Z,28.49
2023-06-22T10:02:45.784Z,28.33
2023-06-22T10:05:14.512Z,27.32
2023-06-22T10:07:44.561Z,27.37
2023-06-22T10:10:14.133Z,27.56
2023-06-22T10:12:50.007Z,28.00
2023-06-22T10:15:22.261Z,28.46
2023-06-22T10:17:50.944Z,28.13
2023-06-22T10:20:29.293Z,28.91
2023-06-22T10:22:59.633Z,28.49
2023-06-22T10:25:29.976Z,28.56
2023-06-22T10:27:59.959Z,28.57
2023-06-22T10:30:29.968Z,28.79
2023-06-22T10:32:58.435Z,29.16
2023-06-22T10:35:32.192Z,29.04
2023-06-22T10:38:00.963Z,27.97
2023-06-22T10:40:29.342Z,27.89
2023-06-22T10:42:59.094Z,27.52
2023-06-22T10:45:28.598Z,27.10
2023-06-22T10:47:57.354Z,27.19
2023-06-22T10:50:26.749Z,27.05
2023-06-22T10:52:58.141Z,27.26
2023-06-22T10:55:37.172Z,27.12
2023-06-22T10:58:17.075Z,26.62
2023-06-22T11:00:45.404Z,26.42
2023-06-22T11:03:15.393Z,26.51
2023-06-22T11:05:43.920Z,26.26
2023-06-22T11:08:12.184Z,25.91
2023-06-22T11:10:40.672Z,25.81
2023-06-22T11:13:11.103Z,25.99
2023-06-22T11:15:42.878Z,25.98
2023-06-22T11:18:11.429Z,25.97
2023-06-22T11:20:44.459Z,26.30
2023-06-22T11:23:13.882Z,25.53
2023-06-22T11:25:43.573Z,25.69
2023-06-22T11:28:11.960Z,24.78
2023-06-22T11:30:40.324Z,24.40
2023-06-22T11:33:10.075Z,24.04
2023-06-22T11:35:38.441Z,25.16
2023-06-22T11:38:06.728Z,24.78
2023-06-22T11:40:35.010Z,24.56
2023-06-22T11:43:03.884Z,23.75
2023-06-22T11:45:32.223Z,23.83
2023-06-22T11:48:00.702Z,23.75
2023-06-22T11:50:31.692Z,23.61
2023-06-22T11:53:00.266Z,24.29
2023-06-22T11:55:28.615Z,23.80
2023-06-22T11:58:01.133Z,23.89
2023-06-22T12:00:30.724Z,22.96
2023-06-22T12:03:01.108Z,22.49
2023-06-22T12:05:31.257Z,22.90
2023-06-22T12:07:59.634Z,23.25
2023-06-22T12:10:29.969Z,22.96
2023-06-22T12:13:00.947Z,23.07
2023-06-22T12:15:29.697Z,22.94
2023-06-22T12:17:58.054Z,22.66
2023-06-22T12:20:26.677Z,22.68
2023-06-22T12:22:57.291Z,22.18
2023-06-22T12:25:25.769Z,22.05
2023-06-22T12:27:54.915Z,22.46
2023-06-22T12:30:23.338Z,21.96
2023-06-22T12:32:54.437Z,21.99
2023-06-22T12:35:23.649Z,23.40
2023-06-22T12:37:52.030Z,22.43
2023-06-22T12:40:23.887Z,22.82
2023-06-22T12:42:52.242Z,22.04
2023-06-22T12:45:22.457Z,21.17
2023-06-22T12:47:53.855Z,20.95
2023-06-22T12:50:22.159Z,21.55
2023-06-22T12:52:50.462Z,21.29
2023-06-22T12:55:18.871Z,21.67
2023-06-22T12:57:48.538Z,21.22
2023-06-22T13:00:18.398Z,20.25
2023-06-22T13:02:46.804Z,21.98
2023-06-22T13:05:15.271Z,21.33
2023-06-22T13:07:43.912Z,20.26
2023-06-22T13:10:12.395Z,21.04
2023-06-22T13:12:40.717Z,21.26
2023-06-22T13:15:11.109Z,21.80
2023-06-22T13:17:39.561Z,21.49
2023-06-22T13:20:17.714Z,22.11
2023-06-22T13:22:46.158Z,21.57
2023-06-22T13:25:14.808Z,21.96
2023-06-22T13:27:43.236Z,21.78
2023-06-22T13:30:16.521Z,21.58
2023-06-22T13:32:45.029Z,21.40
2023-06-22T13:35:14.108Z,21.62
2023-06-22T13:37:42.577Z,21.38
2023-06-22T13:40:11.842Z,20.94
2023-06-22T13:42:40.264Z,20.90
2023-06-22T13:45:16.939Z,20.87
2023-06-22T13:47:45.325Z,20.54
2023-06-22T13:50:14.824Z,20.77
2023-06-22T13:52:43.197Z,21.32
2023-06-22T13:55:15.392Z,21.63
2023-06-22T13:57:44.477Z,20.68
2023-06-22T14:00:17.437Z,20.56
2023-06-22T14:02:45.885Z,20.31
2023-06-22T14:05:14.410Z,20.73
2023-06-22T14:07:43.183Z,22.29
2023-06-22T14:10:14.994Z,21.62
2023-06-22T14:12:43.398Z,20.71
2023-06-22T14:15:13.414Z,21.63
2023-06-22T14:17:41.787Z,22.57
2023-06-22T14:20:14.083Z,22.91
2023-06-22T14:22:42.480Z,22.67
2023-06-22T14:25:11.219Z,22.95
2023-06-22T14:27:39.517Z,22.25
2023-06-22T14:30:09.556Z,22.54
2023-06-22T14:32:39.290Z,22.06
2023-06-22T14:35:13.125Z,21.95
2023-06-22T14:37:41.469Z,22.16
2023-06-22T14:40:10.915Z,22.02
2023-06-22T14:42:39.337Z,23.04
2023-06-22T14:45:12.134Z,24.03
2023-06-22T14:47:42.045Z,23.90
2023-06-22T14:50:11.123Z,23.89
2023-06-22T14:52:39.518Z,23.95
2023-06-22T14:55:09.247Z,23.34
2023-06-22T14:57:37.653Z,22.69
2023-06-22T15:00:08.083Z,22.77
2023-06-22T15:02:36.657Z,22.86
2023-06-22T15:05:07.236Z,22.67
2023-06-22T15:07:35.666Z,23.03
2023-06-22T15:10:04.129Z,23.41
2023-06-22T15:12:32.468Z,23.84
2023-06-22T15:15:00.830Z,22.77
2023-06-22T15:17:30.428Z,23.33
2023-06-22T15:20:02.423Z,22.97
2023-06-22T15:22:32.382Z,22.80
2023-06-22T15:25:00.776Z,23.62
2023-06-22T15:27:29.174Z,22.97
2023-06-22T15:30:00.749Z,23.38
2023-06-22T15:32:30.027Z,23.80
2023-06-22T15:34:58.423Z,24.24
2023-06-22T15:37:26.802Z,23.46
2023-06-22T15:39:57.129Z,23.90
2023-06-22T15:42:25.493Z,23.34
2023-06-22T15:44:53.824Z,22.93
2023-06-22T15:47:23.909Z,23.00
2023-06-22T15:49:52.993Z,23.00
2023-06-22T15:52:21.716Z,23.32
2023-06-22T15:54:51.227Z,22.32
2023-06-22T15:57:20.995Z,23.34
2023-06-22T15:59:49.370Z,23.10
2023-06-22T16:02:17.757Z,23.45
2023-06-22T16:04:46.155Z,23.44
2023-06-22T16:07:14.690Z,23.84
2023-06-22T16:09:43.215Z,22.85
2023-06-22T16:12:12.050Z,22.58
2023-06-22T16:14:43.073Z,23.04
2023-06-22T16:17:11.539Z,23.07
2023-06-22T16:19:39.943Z,23.24
2023-06-22T16:22:08.682Z,23.50
2023-06-22T16:24:37.060Z,23.28
2023-06-22T16:27:05.967Z,23.03
2023-06-22T16:29:37.355Z,22.85
2023-06-22T16:32:09.202Z,23.13
2023-06-22T16:34:37.585Z,23.25
2023-06-22T16:37:06.827Z,22.57
2023-06-22T16:39:35.148Z,23.50
2023-06-22T16:42:03.874Z,23.53
2023-06-22T16:44:32.302Z,23.18
2023-06-22T16:47:02.459Z,23.71
2023-06-22T16:49:32.209Z,23.30
2023-06-22T16:52:00.803Z,23.30
2023-06-22T16:54:31.732Z,24.54
2023-06-22T16:57:03.427Z,23.97
2023-06-22T16:59:31.965Z,23.98
2023-06-22T17:02:00.657Z,23.95
2023-06-22T17:04:33.135Z,24.42
2023-06-22T17:07:09.893Z,24.57
2023-06-22T17:09:42.599Z,25.39
2023-06-22T17:12:11.973Z,25.12
2023-06-22T17:14:45.460Z,25.06
2023-06-22T17:17:15.972Z,24.68
2023-06-22T17:19:45.988Z,24.79
2023-06-22T17:22:14.431Z,25.61
2023-06-22T17:24:43.089Z,24.73
2023-06-22T17:27:11.587Z,24.87
2023-06-22T17:29:39.902Z,24.54
2023-06-22T17:32:09.086Z,25.39
2023-06-22T17:34:38.335Z,25.37
2023-06-22T17:37:08.138Z,25.20
2023-06-22T17:39:36.631Z,25.07
2023-06-22T17:42:10.231Z,25.39
2023-06-22T17:44:38.620Z,25.35
2023-06-22T17:47:07.526Z,25.34
2023-06-22T17:49:35.917Z,25.59
2023-06-22T17:52:04.437Z,26.51
2023-06-22T17:54:39.507Z,27.09
2023-06-22T17:57:18.042Z,26.88
2023-06-22T17:59:51.100Z,27.22
2023-06-22T18:02:26.360Z,26.19
2023-06-22T18:04:59.925Z,27.45
2023-06-22T18:07:31.106Z,27.08
2023-06-22T18:10:06.032Z,26.50
2023-06-22T18:12:36.136Z,26.81
2023-06-22T18:15:05.892Z,27.71
2023-06-22T18:17:35.226Z,27.29
2023-06-22T18:20:07.762Z,26.80
2023-06-22T18:22:37.209Z,27.57
2023-06-22T18:25:14.460Z,28.12
2023-06-22T18:27:44.621Z,28.35
2023-06-22T18:30:13.739Z,29.14
2023-06-22T18:32:42.506Z,29.04
2023-06-22T18:35:12.504Z,29.06
2023-06-22T18:37:43.455Z,29.19
2023-06-22T18:40:18.066Z,30.13
2023-06-22T18:42:50.554Z,29.47
2023-06-22T18:45:26.285Z,30.52
2023-06-22T18:48:03.302Z,30.75
2023-06-22T18:50:40.512Z,30.71
2023-06-22T18:53:16.883Z,30.84
2023-06-22T18:55:52.593Z,31.18
2023-06-22T18:58:26.606Z,31.34
2023-06-22T19:00:56.415Z,32.47
2023-06-22T19:03:36.023Z,34.33
2023-06-22T19:06:04.673Z,34.80
2023-06-22T19:09:15.799Z,34.74
2023-06-22T19:11:45.567Z,35.22
2023-06-22T19:14:21.998Z,34.37
2023-06-22T19:16:59.286Z,35.30
2023-06-22T19:19:27.791Z,34.36
2023-06-22T19:22:01.896Z,33.71
2023-06-22T19:24:44.314Z,34.18
2023-06-22T19:27:14.975Z,35.09
2023-06-22T19:29:43.760Z,35.74
2023-06-22T19:32:12.525Z,35.68
2023-06-22T19:34:46.877Z,35.99
2023-06-22T19:37:18.381Z,36.78
2023-06-22T19:39:47.674Z,37.04
2023-06-22T19:42:17.652Z,37.51
2023-06-22T19:44:47.222Z,38.51
2023-06-22T19:47:16.466Z,38.54
2023-06-22T19:49:45.368Z,38.26
2023-06-22T19:52:13.724Z,38.04
2023-06-22T19:54:42.305Z,38.56
2023-06-22T19:57:11.378Z,37.79
2023-06-22T19:59:41.422Z,37.08
2023-06-22T20:02:11.408Z,36.94
2023-06-22T20:04:40.802Z,38.04
2023-06-22T20:07:09.703Z,37.87
2023-06-22T20:09:43.328Z,38.56
2023-06-22T20:12:15.316Z,37.83
2023-06-22T20:14:45.339Z,37.69
2023-06-22T20:17:17.457Z,37.18
2023-06-22T20:19:46.265Z,36.71
2023-06-22T20:22:14.643Z,36.72
2023-06-22T20:24:42.957Z,36.66
2023-06-22T20:27:14.370Z,36.55
2023-06-22T20:29:45.224Z,36.30
2023-06-22T20:32:15.482Z,36.32
2023-06-22T20:34:46.642Z,37.58
2023-06-22T20:37:15.663Z,37.43
2023-06-22T20:39:48.482Z,36.36
2023-06-22T20:42:18.540Z,38.83
2023-06-22T20:44:51.782Z,38.71
2023-06-22T20:47:22.523Z,39.58
2023-06-22T20:49:51.246Z,39.75
2023-06-22T20:52:19.864Z,39.97
2023-06-22T20:54:48.488Z,40.04
2023-06-22T20:57:16.988Z,40.77
2023-06-22T20:59:45.365Z,40.66
2023-06-22T21:02:16.974Z,40.86
2023-06-22T21:04:45.589Z,41.75
2023-06-22T21:07:13.951Z,41.26
2023-06-22T21:09:51.460Z,40.88
2023-06-22T21:12:20.772Z,40.67
2023-06-22T21:14:50.691Z,40.72
2023-06-22T21:17:20.785Z,40.58
2023-06-22T21:19:49.277Z,40.44
2023-06-22T21:22:17.637Z,40.21
2023-06-22T21:24:46.555Z,40.07
2023-06-22T21:27:15.103Z,39.71
2023-06-22T21:29:43.430Z,39.41
2023-06-22T21:32:11.866Z,39.95
2023-06-22T21:34:41.565Z,39.75
2023-06-22T21:37:09.879Z,39.79
2023-06-22T21:39:38.207Z,39.92
2023-06-22T21:42:15.929Z,40.72
2023-06-22T21:44:44.220Z,41.35
2023-06-22T21:47:12.594Z,40.35
2023-06-22T21:49:42.752Z,41.35
2023-06-22T21:52:12.681Z,41.60
2023-06-22T21:54:41.151Z,41.51
2023-06-22T21:57:09.945Z,41.46
2023-06-22T21:59:38.254Z,41.57
2023-06-22T22:02:07.388Z,41.74
2023-06-22T22:04:35.871Z,42.25
2023-06-22T22:07:07.612Z,42.22
2023-06-22T22:09:35.928Z,41.96
2023-06-22T22:12:04.522Z,42.69
2023-06-22T22:14:33.235Z,43.04
2023-06-22T22:17:01.651Z,43.02
2023-06-22T22:19:30.033Z,43.15
2023-06-22T22:21:58.346Z,43.61
2023-06-22T22:24:28.043Z,44.13
2023-06-22T22:26:56.356Z,44.09
2023-06-22T22:29:24.669Z,43.93
2023-06-22T22:31:53.040Z,43.99
2023-06-22T22:34:21.363Z,44.80
2023-06-22T22:36:49.836Z,45.11
2023-06-22T22:39:39.569Z,44.90
2023-06-22T22:42:09.258Z,45.07
2023-06-22T22:44:37.538Z,45.79
2023-06-22T22:47:08.233Z,45.56
2023-06-22T22:49:36.560Z,46.21
2023-06-22T22:52:06.026Z,46.18
2023-06-22T22:54:36.032Z,46.20
2023-06-22T22:57:04.960Z,46.66
2023-06-22T22:59:33.263Z,47.01
2023-06-22T23:02:01.686Z,47.18
2023-06-22T23:04:30.017Z,46.96
2023-06-22T23:07:01.249Z,47.43
2023-06-22T23:09:29.562Z,47.92
2023-06-22T23:11:59.302Z,47.44
2023-06-22T23:14:27.621Z,47.52
2023-06-22T23:16:57.741Z,47.54
2023-06-22T23:19:26.437Z,47.63
2023-06-22T23:21:54.701Z,48.01
2023-06-22T23:24:23.032Z,48.12
2023-06-22T23:26:51.404Z,48.64
2023-06-22T23:29:21.126Z,48.67
2023-06-22T23:31:49.448Z,48.86
2023-06-22T23:34:17.770Z,48.77
2023-06-22T23:36:49.038Z,48.98
2023-06-22T23:39:18.839Z,49.06
2023-06-22T23:41:55.125Z,48.92
2023-06-22T23:44:26.023Z,49.12
2023-06-22T23:46:54.389Z,49.61
2023-06-22T23:49:22.645Z,49.64
2023-06-22T23:51:50.990Z,49.77
2023-06-22T23:54:19.300Z,50.03
2023-06-22T23:56:47.646Z,49.63
2023-06-22T23:59:15.985Z,49.94
